sensor_id;sensor_type;location;lat;lon;timestamp;P1;durP1;ratioP1;P2;durP2;ratioP2
10641;SDS011;5369;49.586;8.646;2023-05-07T00:00:17;2.27;;;1.97;;
10641;SDS011;5369;49.586;8.646;2023-05-07T00:02:44;2.00;;;1.87;;
10641;SDS011;5369;49.586;8.646;2023-05-07T00:05:11;3.57;;;2.03;;
10641;SDS011;5369;49.586;8.646;2023-05-07T00:07:37;3.50;;;1.80;;
10641;SDS011;5369;49.586;8.646;2023-05-07T00:10:03;2.93;;;2.00;;
10641;SDS011;5369;49.586;8.646;2023-05-07T00:12:31;2.43;;;2.10;;
10641;SDS011;5369;49.586;8.646;2023-05-07T00:14:59;3.67;;;2.00;;
10641;SDS011;5369;49.586;8.646;2023-05-07T00:17:25;2.67;;;2.10;;
10641;SDS011;5369;49.586;8.646;2023-05-07T00:19:51;2.63;;;1.70;;
10641;SDS011;5369;49.586;8.646;2023-05-07T00:22:17;2.60;;;1.83;;
10641;SDS011;5369;49.586;8.646;2023-05-07T00:24:43;4.57;;;2.67;;
10641;SDS011;5369;49.586;8.646;2023-05-07T00:27:09;4.87;;;3.13;;
10641;SDS011;5369;49.586;8.646;2023-05-07T00:29:36;7.30;;;3.57;;
10641;SDS011;5369;49.586;8.646;2023-05-07T00:32:02;4.00;;;3.60;;
10641;SDS011;5369;49.586;8.646;2023-05-07T00:34:28;3.50;;;3.20;;
10641;SDS011;5369;49.586;8.646;2023-05-07T00:36:54;3.90;;;3.40;;
10641;SDS011;5369;49.586;8.646;2023-05-07T00:39:21;5.00;;;3.40;;
10641;SDS011;5369;49.586;8.646;2023-05-07T00:41:47;3.40;;;3.10;;
10641;SDS011;5369;49.586;8.646;2023-05-07T00:44:13;4.43;;;2.60;;
10641;SDS011;5369;49.586;8.646;2023-05-07T00:46:39;6.17;;;4.60;;
10641;SDS011;5369;49.586;8.646;2023-05-07T00:49:06;5.40;;;3.90;;
10641;SDS011;5369;49.586;8.646;2023-05-07T00:51:32;3.70;;;2.83;;
10641;SDS011;5369;49.586;8.646;2023-05-07T00:53:59;3.33;;;2.80;;
10641;SDS011;5369;49.586;8.646;2023-05-07T00:56:27;3.00;;;2.70;;
10641;SDS011;5369;49.586;8.646;2023-05-07T00:58:53;2.93;;;2.57;;
10641;SDS011;5369;49.586;8.646;2023-05-07T01:01:20;2.40;;;2.20;;
10641;SDS011;5369;49.586;8.646;2023-05-07T01:03:46;3.03;;;2.00;;
10641;SDS011;5369;49.586;8.646;2023-05-07T01:06:13;2.60;;;2.13;;
10641;SDS011;5369;49.586;8.646;2023-05-07T01:08:41;2.13;;;1.90;;
10641;SDS011;5369;49.586;8.646;2023-05-07T01:11:08;2.30;;;2.10;;
10641;SDS011;5369;49.586;8.646;2023-05-07T01:13:34;2.40;;;2.00;;
10641;SDS011;5369;49.586;8.646;2023-05-07T01:16:01;2.40;;;1.80;;
10641;SDS011;5369;49.586;8.646;2023-05-07T01:18:28;1.90;;;1.80;;
10641;SDS011;5369;49.586;8.646;2023-05-07T01:20:56;1.70;;;1.60;;
10641;SDS011;5369;49.586;8.646;2023-05-07T01:23:25;3.37;;;2.00;;
10641;SDS011;5369;49.586;8.646;2023-05-07T01:25:51;2.50;;;2.23;;
10641;SDS011;5369;49.586;8.646;2023-05-07T01:28:19;5.73;;;2.53;;
10641;SDS011;5369;49.586;8.646;2023-05-07T01:30:46;2.30;;;2.07;;
10641;SDS011;5369;49.586;8.646;2023-05-07T01:33:15;3.17;;;2.30;;
10641;SDS011;5369;49.586;8.646;2023-05-07T01:35:45;2.63;;;2.30;;
10641;SDS011;5369;49.586;8.646;2023-05-07T01:38:12;3.83;;;2.53;;
10641;SDS011;5369;49.586;8.646;2023-05-07T01:40:39;3.93;;;3.00;;
10641;SDS011;5369;49.586;8.646;2023-05-07T01:43:05;3.70;;;2.73;;
10641;SDS011;5369;49.586;8.646;2023-05-07T01:45:33;3.53;;;3.20;;
10641;SDS011;5369;49.586;8.646;2023-05-07T01:47:59;3.40;;;2.80;;
10641;SDS011;5369;49.586;8.646;2023-05-07T01:50:26;3.90;;;3.10;;
10641;SDS011;5369;49.586;8.646;2023-05-07T01:52:53;2.70;;;2.50;;
10641;SDS011;5369;49.586;8.646;2023-05-07T01:55:19;5.43;;;3.03;;
10641;SDS011;5369;49.586;8.646;2023-05-07T01:57:45;4.07;;;3.00;;
10641;SDS011;5369;49.586;8.646;2023-05-07T02:00:11;3.43;;;2.60;;
10641;SDS011;5369;49.586;8.646;2023-05-07T02:02:40;4.20;;;2.50;;
10641;SDS011;5369;49.586;8.646;2023-05-07T02:05:11;3.77;;;2.53;;
10641;SDS011;5369;49.586;8.646;2023-05-07T02:07:39;2.60;;;2.40;;
10641;SDS011;5369;49.586;8.646;2023-05-07T02:10:06;2.30;;;2.10;;
10641;SDS011;5369;49.586;8.646;2023-05-07T02:12:32;2.60;;;2.40;;
10641;SDS011;5369;49.586;8.646;2023-05-07T02:14:58;2.40;;;2.20;;
10641;SDS011;5369;49.586;8.646;2023-05-07T02:17:24;2.60;;;2.40;;
10641;SDS011;5369;49.586;8.646;2023-05-07T02:19:51;3.27;;;2.57;;
10641;SDS011;5369;49.586;8.646;2023-05-07T02:22:17;3.37;;;2.63;;
10641;SDS011;5369;49.586;8.646;2023-05-07T02:24:43;4.23;;;3.03;;
10641;SDS011;5369;49.586;8.646;2023-05-07T02:27:09;3.50;;;2.70;;
10641;SDS011;5369;49.586;8.646;2023-05-07T02:29:36;2.97;;;2.77;;
10641;SDS011;5369;49.586;8.646;2023-05-07T02:32:03;5.90;;;2.97;;
10641;SDS011;5369;49.586;8.646;2023-05-07T02:34:29;3.27;;;2.90;;
10641;SDS011;5369;49.586;8.646;2023-05-07T02:36:55;3.60;;;3.30;;
10641;SDS011;5369;49.586;8.646;2023-05-07T02:39:24;3.53;;;3.23;;
10641;SDS011;5369;49.586;8.646;2023-05-07T02:41:50;4.07;;;3.60;;
10641;SDS011;5369;49.586;8.646;2023-05-07T02:44:16;4.10;;;3.60;;
10641;SDS011;5369;49.586;8.646;2023-05-07T02:46:45;4.30;;;3.90;;
10641;SDS011;5369;49.586;8.646;2023-05-07T02:49:12;4.27;;;3.60;;
10641;SDS011;5369;49.586;8.646;2023-05-07T02:51:38;5.20;;;3.90;;
10641;SDS011;5369;49.586;8.646;2023-05-07T02:54:09;4.13;;;3.73;;
10641;SDS011;5369;49.586;8.646;2023-05-07T02:56:36;5.60;;;3.80;;
10641;SDS011;5369;49.586;8.646;2023-05-07T02:59:02;3.93;;;3.63;;
10641;SDS011;5369;49.586;8.646;2023-05-07T03:01:32;4.27;;;3.53;;
10641;SDS011;5369;49.586;8.646;2023-05-07T03:04:02;4.20;;;3.63;;
10641;SDS011;5369;49.586;8.646;2023-05-07T03:06:29;4.10;;;3.70;;
10641;SDS011;5369;49.586;8.646;2023-05-07T03:08:55;3.97;;;3.57;;
10641;SDS011;5369;49.586;8.646;2023-05-07T03:11:21;3.90;;;3.50;;
10641;SDS011;5369;49.586;8.646;2023-05-07T03:13:47;5.03;;;3.70;;
10641;SDS011;5369;49.586;8.646;2023-05-07T03:16:16;4.87;;;3.30;;
10641;SDS011;5369;49.586;8.646;2023-05-07T03:18:42;4.33;;;3.73;;
10641;SDS011;5369;49.586;8.646;2023-05-07T03:21:08;4.47;;;3.57;;
10641;SDS011;5369;49.586;8.646;2023-05-07T03:23:34;3.63;;;3.33;;
10641;SDS011;5369;49.586;8.646;2023-05-07T03:26:00;5.93;;;3.40;;
10641;SDS011;5369;49.586;8.646;2023-05-07T03:28:27;3.23;;;2.93;;
10641;SDS011;5369;49.586;8.646;2023-05-07T03:30:58;3.73;;;3.30;;
10641;SDS011;5369;49.586;8.646;2023-05-07T03:33:24;3.50;;;3.20;;
10641;SDS011;5369;49.586;8.646;2023-05-07T03:35:52;3.87;;;3.43;;
10641;SDS011;5369;49.586;8.646;2023-05-07T03:38:22;3.93;;;3.10;;
10641;SDS011;5369;49.586;8.646;2023-05-07T03:40:48;5.40;;;3.40;;
10641;SDS011;5369;49.586;8.646;2023-05-07T03:43:15;4.03;;;3.57;;
10641;SDS011;5369;49.586;8.646;2023-05-07T03:45:46;4.77;;;3.90;;
10641;SDS011;5369;49.586;8.646;2023-05-07T03:48:17;5.67;;;4.00;;
10641;SDS011;5369;49.586;8.646;2023-05-07T03:50:44;4.90;;;4.40;;
10641;SDS011;5369;49.586;8.646;2023-05-07T03:53:11;5.03;;;4.30;;
10641;SDS011;5369;49.586;8.646;2023-05-07T03:55:38;6.20;;;4.37;;
10641;SDS011;5369;49.586;8.646;2023-05-07T03:58:05;4.57;;;4.17;;
10641;SDS011;5369;49.586;8.646;2023-05-07T04:00:31;4.57;;;3.83;;
10641;SDS011;5369;49.586;8.646;2023-05-07T04:03:05;4.43;;;3.90;;
10641;SDS011;5369;49.586;8.646;2023-05-07T04:05:31;5.77;;;4.10;;
10641;SDS011;5369;49.586;8.646;2023-05-07T04:08:00;4.30;;;3.90;;
10641;SDS011;5369;49.586;8.646;2023-05-07T04:10:34;4.57;;;4.10;;
10641;SDS011;5369;49.586;8.646;2023-05-07T04:13:05;4.20;;;3.70;;
10641;SDS011;5369;49.586;8.646;2023-05-07T04:15:32;4.30;;;3.90;;
10641;SDS011;5369;49.586;8.646;2023-05-07T04:17:58;5.07;;;4.60;;
10641;SDS011;5369;49.586;8.646;2023-05-07T04:20:24;4.70;;;4.30;;
10641;SDS011;5369;49.586;8.646;2023-05-07T04:22:57;4.80;;;4.40;;
10641;SDS011;5369;49.586;8.646;2023-05-07T04:25:24;6.93;;;4.70;;
10641;SDS011;5369;49.586;8.646;2023-05-07T04:27:53;8.20;;;4.80;;
10641;SDS011;5369;49.586;8.646;2023-05-07T04:30:23;4.70;;;4.30;;
10641;SDS011;5369;49.586;8.646;2023-05-07T04:32:50;4.87;;;4.40;;
10641;SDS011;5369;49.586;8.646;2023-05-07T04:35:16;5.60;;;4.70;;
10641;SDS011;5369;49.586;8.646;2023-05-07T04:37:43;5.70;;;3.90;;
10641;SDS011;5369;49.586;8.646;2023-05-07T04:40:09;6.03;;;4.23;;
10641;SDS011;5369;49.586;8.646;2023-05-07T04:42:35;5.00;;;4.50;;
10641;SDS011;5369;49.586;8.646;2023-05-07T04:45:02;7.70;;;5.30;;
10641;SDS011;5369;49.586;8.646;2023-05-07T04:47:32;7.73;;;5.47;;
10641;SDS011;5369;49.586;8.646;2023-05-07T04:49:59;5.87;;;5.20;;
10641;SDS011;5369;49.586;8.646;2023-05-07T04:52:26;6.20;;;5.07;;
10641;SDS011;5369;49.586;8.646;2023-05-07T04:54:52;5.10;;;4.60;;
10641;SDS011;5369;49.586;8.646;2023-05-07T04:57:18;5.00;;;4.50;;
10641;SDS011;5369;49.586;8.646;2023-05-07T04:59:44;5.27;;;4.70;;
10641;SDS011;5369;49.586;8.646;2023-05-07T05:02:11;4.80;;;4.30;;
10641;SDS011;5369;49.586;8.646;2023-05-07T05:04:38;5.00;;;4.30;;
10641;SDS011;5369;49.586;8.646;2023-05-07T05:07:05;5.23;;;4.03;;
10641;SDS011;5369;49.586;8.646;2023-05-07T05:09:31;4.83;;;4.10;;
10641;SDS011;5369;49.586;8.646;2023-05-07T05:11:58;4.20;;;3.80;;
10641;SDS011;5369;49.586;8.646;2023-05-07T05:14:24;6.00;;;4.30;;
10641;SDS011;5369;49.586;8.646;2023-05-07T05:16:51;4.60;;;3.77;;
10641;SDS011;5369;49.586;8.646;2023-05-07T05:19:18;3.83;;;3.50;;
10641;SDS011;5369;49.586;8.646;2023-05-07T05:21:44;3.90;;;3.50;;
10641;SDS011;5369;49.586;8.646;2023-05-07T05:24:11;3.60;;;3.30;;
10641;SDS011;5369;49.586;8.646;2023-05-07T05:26:38;3.33;;;2.80;;
10641;SDS011;5369;49.586;8.646;2023-05-07T05:29:04;3.30;;;3.00;;
10641;SDS011;5369;49.586;8.646;2023-05-07T05:31:31;3.60;;;2.80;;
10641;SDS011;5369;49.586;8.646;2023-05-07T05:33:58;4.13;;;2.60;;
10641;SDS011;5369;49.586;8.646;2023-05-07T05:36:25;2.93;;;2.73;;
10641;SDS011;5369;49.586;8.646;2023-05-07T05:38:55;3.53;;;2.60;;
10641;SDS011;5369;49.586;8.646;2023-05-07T05:41:21;3.80;;;2.90;;
10641;SDS011;5369;49.586;8.646;2023-05-07T05:43:49;3.23;;;2.60;;
10641;SDS011;5369;49.586;8.646;2023-05-07T05:46:16;2.60;;;2.40;;
10641;SDS011;5369;49.586;8.646;2023-05-07T05:48:42;2.90;;;2.30;;
10641;SDS011;5369;49.586;8.646;2023-05-07T05:51:10;2.83;;;2.47;;
10641;SDS011;5369;49.586;8.646;2023-05-07T05:53:36;2.70;;;2.50;;
10641;SDS011;5369;49.586;8.646;2023-05-07T05:56:02;3.70;;;2.47;;
10641;SDS011;5369;49.586;8.646;2023-05-07T05:58:30;2.37;;;2.17;;
10641;SDS011;5369;49.586;8.646;2023-05-07T06:01:00;2.57;;;2.17;;
10641;SDS011;5369;49.586;8.646;2023-05-07T06:03:28;2.60;;;2.20;;
10641;SDS011;5369;49.586;8.646;2023-05-07T06:05:57;2.50;;;2.30;;
10641;SDS011;5369;49.586;8.646;2023-05-07T06:08:25;3.27;;;2.20;;
10641;SDS011;5369;49.586;8.646;2023-05-07T06:10:51;2.60;;;2.00;;
10641;SDS011;5369;49.586;8.646;2023-05-07T06:13:18;2.43;;;1.93;;
10641;SDS011;5369;49.586;8.646;2023-05-07T06:15:44;2.43;;;2.23;;
10641;SDS011;5369;49.586;8.646;2023-05-07T06:18:12;2.63;;;2.00;;
10641;SDS011;5369;49.586;8.646;2023-05-07T06:20:39;2.10;;;1.90;;
10641;SDS011;5369;49.586;8.646;2023-05-07T06:23:10;2.10;;;1.90;;
10641;SDS011;5369;49.586;8.646;2023-05-07T06:25:36;2.40;;;2.20;;
10641;SDS011;5369;49.586;8.646;2023-05-07T06:28:03;2.70;;;2.50;;
10641;SDS011;5369;49.586;8.646;2023-05-07T06:30:32;2.53;;;2.33;;
10641;SDS011;5369;49.586;8.646;2023-05-07T06:32:58;2.37;;;2.10;;
10641;SDS011;5369;49.586;8.646;2023-05-07T06:35:25;3.03;;;2.50;;
10641;SDS011;5369;49.586;8.646;2023-05-07T06:37:52;2.40;;;2.20;;
10641;SDS011;5369;49.586;8.646;2023-05-07T06:40:22;2.77;;;2.57;;
10641;SDS011;5369;49.586;8.646;2023-05-07T06:42:49;3.50;;;2.87;;
10641;SDS011;5369;49.586;8.646;2023-05-07T06:45:35;3.97;;;2.50;;
10641;SDS011;5369;49.586;8.646;2023-05-07T06:48:03;2.70;;;2.50;;
10641;SDS011;5369;49.586;8.646;2023-05-07T06:50:33;3.17;;;2.70;;
10641;SDS011;5369;49.586;8.646;2023-05-07T06:53:00;3.37;;;2.77;;
10641;SDS011;5369;49.586;8.646;2023-05-07T06:55:26;5.03;;;2.80;;
10641;SDS011;5369;49.586;8.646;2023-05-07T06:57:53;2.97;;;2.40;;
10641;SDS011;5369;49.586;8.646;2023-05-07T07:00:21;3.40;;;3.10;;
10641;SDS011;5369;49.586;8.646;2023-05-07T07:02:52;4.70;;;3.07;;
10641;SDS011;5369;49.586;8.646;2023-05-07T07:05:20;3.83;;;3.53;;
10641;SDS011;5369;49.586;8.646;2023-05-07T07:07:47;3.60;;;3.23;;
10641;SDS011;5369;49.586;8.646;2023-05-07T07:10:21;3.90;;;3.50;;
10641;SDS011;5369;49.586;8.646;2023-05-07T07:12:49;3.50;;;2.50;;
10641;SDS011;5369;49.586;8.646;2023-05-07T07:15:16;3.07;;;2.80;;
10641;SDS011;5369;49.586;8.646;2023-05-07T07:17:43;3.63;;;2.70;;
10641;SDS011;5369;49.586;8.646;2023-05-07T07:20:09;3.53;;;2.67;;
10641;SDS011;5369;49.586;8.646;2023-05-07T07:22:36;3.93;;;2.53;;
10641;SDS011;5369;49.586;8.646;2023-05-07T07:25:02;4.20;;;3.33;;
10641;SDS011;5369;49.586;8.646;2023-05-07T07:27:28;3.90;;;3.50;;
10641;SDS011;5369;49.586;8.646;2023-05-07T07:29:55;3.77;;;3.40;;
10641;SDS011;5369;49.586;8.646;2023-05-07T07:32:22;3.80;;;3.40;;
10641;SDS011;5369;49.586;8.646;2023-05-07T07:34:48;3.50;;;3.20;;
10641;SDS011;5369;49.586;8.646;2023-05-07T07:37:14;3.43;;;3.00;;
10641;SDS011;5369;49.586;8.646;2023-05-07T07:39:40;3.20;;;2.80;;
10641;SDS011;5369;49.586;8.646;2023-05-07T07:42:07;3.77;;;3.33;;
10641;SDS011;5369;49.586;8.646;2023-05-07T07:44:34;4.13;;;3.70;;
10641;SDS011;5369;49.586;8.646;2023-05-07T07:47:05;3.93;;;3.33;;
10641;SDS011;5369;49.586;8.646;2023-05-07T07:49:32;3.40;;;3.10;;
10641;SDS011;5369;49.586;8.646;2023-05-07T07:52:02;3.80;;;3.30;;
10641;SDS011;5369;49.586;8.646;2023-05-07T07:54:29;3.50;;;3.20;;
10641;SDS011;5369;49.586;8.646;2023-05-07T07:56:56;3.77;;;3.20;;
10641;SDS011;5369;49.586;8.646;2023-05-07T07:59:22;3.73;;;3.10;;
10641;SDS011;5369;49.586;8.646;2023-05-07T08:01:49;5.23;;;2.97;;
10641;SDS011;5369;49.586;8.646;2023-05-07T08:04:17;3.30;;;3.00;;
10641;SDS011;5369;49.586;8.646;2023-05-07T08:06:44;3.23;;;2.83;;
10641;SDS011;5369;49.586;8.646;2023-05-07T08:09:10;3.47;;;3.00;;
10641;SDS011;5369;49.586;8.646;2023-05-07T08:11:39;3.57;;;3.03;;
10641;SDS011;5369;49.586;8.646;2023-05-07T08:14:06;3.13;;;2.83;;
10641;SDS011;5369;49.586;8.646;2023-05-07T08:16:32;2.97;;;2.73;;
10641;SDS011;5369;49.586;8.646;2023-05-07T08:18:59;4.67;;;2.83;;
10641;SDS011;5369;49.586;8.646;2023-05-07T08:21:26;4.20;;;2.40;;
10641;SDS011;5369;49.586;8.646;2023-05-07T08:23:52;3.63;;;2.73;;
10641;SDS011;5369;49.586;8.646;2023-05-07T08:26:19;3.20;;;2.60;;
10641;SDS011;5369;49.586;8.646;2023-05-07T08:28:46;3.00;;;2.70;;
10641;SDS011;5369;49.586;8.646;2023-05-07T08:31:12;2.87;;;2.67;;
10641;SDS011;5369;49.586;8.646;2023-05-07T08:33:40;2.87;;;2.37;;
10641;SDS011;5369;49.586;8.646;2023-05-07T08:36:06;2.70;;;2.50;;
10641;SDS011;5369;49.586;8.646;2023-05-07T08:38:33;3.13;;;2.70;;
10641;SDS011;5369;49.586;8.646;2023-05-07T08:41:00;3.90;;;2.73;;
10641;SDS011;5369;49.586;8.646;2023-05-07T08:43:28;3.00;;;2.70;;
10641;SDS011;5369;49.586;8.646;2023-05-07T08:45:54;3.00;;;2.73;;
10641;SDS011;5369;49.586;8.646;2023-05-07T08:48:24;3.70;;;2.80;;
10641;SDS011;5369;49.586;8.646;2023-05-07T08:50:58;3.10;;;2.50;;
10641;SDS011;5369;49.586;8.646;2023-05-07T08:53:25;5.37;;;2.80;;
10641;SDS011;5369;49.586;8.646;2023-05-07T08:55:51;3.27;;;2.90;;
10641;SDS011;5369;49.586;8.646;2023-05-07T08:58:18;3.30;;;2.80;;
10641;SDS011;5369;49.586;8.646;2023-05-07T09:00:45;2.80;;;2.60;;
10641;SDS011;5369;49.586;8.646;2023-05-07T09:03:12;2.47;;;2.27;;
10641;SDS011;5369;49.586;8.646;2023-05-07T09:05:42;4.40;;;2.30;;
10641;SDS011;5369;49.586;8.646;2023-05-07T09:08:14;2.50;;;2.30;;
10641;SDS011;5369;49.586;8.646;2023-05-07T09:10:41;4.47;;;2.70;;
10641;SDS011;5369;49.586;8.646;2023-05-07T09:13:08;2.57;;;2.37;;
10641;SDS011;5369;49.586;8.646;2023-05-07T09:15:36;3.10;;;2.70;;
10641;SDS011;5369;49.586;8.646;2023-05-07T09:18:02;3.63;;;2.70;;
10641;SDS011;5369;49.586;8.646;2023-05-07T09:20:32;2.93;;;2.53;;
10641;SDS011;5369;49.586;8.646;2023-05-07T09:22:59;2.67;;;2.43;;
10641;SDS011;5369;49.586;8.646;2023-05-07T09:25:27;3.10;;;2.30;;
10641;SDS011;5369;49.586;8.646;2023-05-07T09:27:54;3.60;;;2.40;;
10641;SDS011;5369;49.586;8.646;2023-05-07T09:30:20;2.20;;;2.00;;
10641;SDS011;5369;49.586;8.646;2023-05-07T09:32:48;2.60;;;2.40;;
10641;SDS011;5369;49.586;8.646;2023-05-07T09:35:17;3.73;;;2.40;;
10641;SDS011;5369;49.586;8.646;2023-05-07T09:37:51;3.70;;;2.00;;
10641;SDS011;5369;49.586;8.646;2023-05-07T09:40:22;2.07;;;1.93;;
10641;SDS011;5369;49.586;8.646;2023-05-07T09:42:49;2.77;;;2.10;;
10641;SDS011;5369;49.586;8.646;2023-05-07T09:45:16;2.33;;;1.80;;
10641;SDS011;5369;49.586;8.646;2023-05-07T09:47:47;3.10;;;2.10;;
10641;SDS011;5369;49.586;8.646;2023-05-07T09:50:14;2.37;;;2.00;;
10641;SDS011;5369;49.586;8.646;2023-05-07T09:52:41;3.07;;;2.50;;
10641;SDS011;5369;49.586;8.646;2023-05-07T09:55:09;4.47;;;2.30;;
10641;SDS011;5369;49.586;8.646;2023-05-07T09:57:36;3.13;;;2.10;;
10641;SDS011;5369;49.586;8.646;2023-05-07T10:00:06;2.30;;;2.10;;
10641;SDS011;5369;49.586;8.646;2023-05-07T10:02:46;2.47;;;1.93;;
10641;SDS011;5369;49.586;8.646;2023-05-07T10:05:15;2.37;;;2.00;;
10641;SDS011;5369;49.586;8.646;2023-05-07T10:07:41;2.10;;;1.90;;
10641;SDS011;5369;49.586;8.646;2023-05-07T10:10:08;2.80;;;1.77;;
10641;SDS011;5369;49.586;8.646;2023-05-07T10:12:40;2.70;;;2.00;;
10641;SDS011;5369;49.586;8.646;2023-05-07T10:15:12;3.13;;;1.90;;
10641;SDS011;5369;49.586;8.646;2023-05-07T10:17:42;2.20;;;2.00;;
10641;SDS011;5369;49.586;8.646;2023-05-07T10:20:10;2.73;;;1.90;;
10641;SDS011;5369;49.586;8.646;2023-05-07T10:22:41;2.10;;;1.67;;
10641;SDS011;5369;49.586;8.646;2023-05-07T10:25:16;1.97;;;1.80;;
10641;SDS011;5369;49.586;8.646;2023-05-07T10:27:44;1.93;;;1.83;;
10641;SDS011;5369;49.586;8.646;2023-05-07T10:32:58;4.27;;;2.03;;
10641;SDS011;5369;49.586;8.646;2023-05-07T10:35:32;7.47;;;5.73;;
10641;SDS011;5369;49.586;8.646;2023-05-07T10:38:02;4.03;;;3.63;;
10641;SDS011;5369;49.586;8.646;2023-05-07T10:40:31;2.93;;;2.00;;
10641;SDS011;5369;49.586;8.646;2023-05-07T10:42:59;3.10;;;2.77;;
10641;SDS011;5369;49.586;8.646;2023-05-07T10:45:29;3.60;;;2.33;;
10641;SDS011;5369;49.586;8.646;2023-05-07T10:48:16;2.87;;;2.67;;
10641;SDS011;5369;49.586;8.646;2023-05-07T10:50:48;2.43;;;2.00;;
10641;SDS011;5369;49.586;8.646;2023-05-07T10:56:07;2.97;;;2.67;;
10641;SDS011;5369;49.586;8.646;2023-05-07T10:58:43;2.80;;;2.60;;
10641;SDS011;5369;49.586;8.646;2023-05-07T11:02:03;2.60;;;2.40;;
10641;SDS011;5369;49.586;8.646;2023-05-07T11:04:37;2.27;;;1.83;;
10641;SDS011;5369;49.586;8.646;2023-05-07T11:07:27;3.97;;;2.40;;
10641;SDS011;5369;49.586;8.646;2023-05-07T11:09:59;1.90;;;1.80;;
10641;SDS011;5369;49.586;8.646;2023-05-07T11:15:13;2.53;;;2.10;;
10641;SDS011;5369;49.586;8.646;2023-05-07T11:17:52;3.00;;;2.20;;
10641;SDS011;5369;49.586;8.646;2023-05-07T11:20:18;2.67;;;1.80;;
10641;SDS011;5369;49.586;8.646;2023-05-07T11:22:52;2.17;;;1.97;;
10641;SDS011;5369;49.586;8.646;2023-05-07T11:25:40;2.07;;;1.90;;
10641;SDS011;5369;49.586;8.646;2023-05-07T11:28:14;2.93;;;1.93;;
10641;SDS011;5369;49.586;8.646;2023-05-07T11:30:59;1.83;;;1.60;;
10641;SDS011;5369;49.586;8.646;2023-05-07T11:33:25;2.20;;;1.83;;
10641;SDS011;5369;49.586;8.646;2023-05-07T11:35:53;2.13;;;1.93;;
10641;SDS011;5369;49.586;8.646;2023-05-07T11:38:22;3.97;;;2.10;;
10641;SDS011;5369;49.586;8.646;2023-05-07T11:40:49;3.93;;;1.93;;
10641;SDS011;5369;49.586;8.646;2023-05-07T11:43:16;2.00;;;1.80;;
10641;SDS011;5369;49.586;8.646;2023-05-07T11:45:42;2.00;;;1.80;;
10641;SDS011;5369;49.586;8.646;2023-05-07T11:48:08;2.40;;;2.00;;
10641;SDS011;5369;49.586;8.646;2023-05-07T11:50:34;3.20;;;1.90;;
10641;SDS011;5369;49.586;8.646;2023-05-07T11:53:07;3.20;;;2.10;;
10641;SDS011;5369;49.586;8.646;2023-05-07T11:55:33;3.50;;;2.20;;
10641;SDS011;5369;49.586;8.646;2023-05-07T11:57:59;2.50;;;2.00;;
10641;SDS011;5369;49.586;8.646;2023-05-07T12:00:25;2.63;;;2.07;;
10641;SDS011;5369;49.586;8.646;2023-05-07T12:02:51;2.27;;;1.97;;
10641;SDS011;5369;49.586;8.646;2023-05-07T12:05:17;2.53;;;2.20;;
10641;SDS011;5369;49.586;8.646;2023-05-07T12:07:43;4.97;;;1.90;;
10641;SDS011;5369;49.586;8.646;2023-05-07T12:10:10;3.67;;;2.20;;
10641;SDS011;5369;49.586;8.646;2023-05-07T12:12:38;2.13;;;1.93;;
10641;SDS011;5369;49.586;8.646;2023-05-07T12:15:05;4.03;;;2.00;;
10641;SDS011;5369;49.586;8.646;2023-05-07T12:17:31;2.30;;;2.10;;
10641;SDS011;5369;49.586;8.646;2023-05-07T12:19:58;2.30;;;2.00;;
10641;SDS011;5369;49.586;8.646;2023-05-07T12:22:24;5.07;;;2.00;;
10641;SDS011;5369;49.586;8.646;2023-05-07T12:24:57;1.80;;;1.70;;
10641;SDS011;5369;49.586;8.646;2023-05-07T12:27:24;4.03;;;1.73;;
10641;SDS011;5369;49.586;8.646;2023-05-07T12:29:50;2.33;;;1.60;;
10641;SDS011;5369;49.586;8.646;2023-05-07T12:32:17;1.80;;;1.70;;
10641;SDS011;5369;49.586;8.646;2023-05-07T12:34:43;2.50;;;1.70;;
10641;SDS011;5369;49.586;8.646;2023-05-07T12:37:10;1.80;;;1.67;;
10641;SDS011;5369;49.586;8.646;2023-05-07T12:39:36;3.43;;;1.40;;
10641;SDS011;5369;49.586;8.646;2023-05-07T12:42:02;1.67;;;1.57;;
10641;SDS011;5369;49.586;8.646;2023-05-07T12:44:29;2.30;;;1.70;;
10641;SDS011;5369;49.586;8.646;2023-05-07T12:46:55;2.17;;;1.80;;
10641;SDS011;5369;49.586;8.646;2023-05-07T12:49:22;1.80;;;1.70;;
10641;SDS011;5369;49.586;8.646;2023-05-07T12:51:48;2.00;;;1.60;;
10641;SDS011;5369;49.586;8.646;2023-05-07T12:54:28;2.30;;;1.57;;
10641;SDS011;5369;49.586;8.646;2023-05-07T12:57:04;1.60;;;1.50;;
10641;SDS011;5369;49.586;8.646;2023-05-07T12:59:32;2.17;;;1.80;;
10641;SDS011;5369;49.586;8.646;2023-05-07T13:01:58;2.27;;;1.53;;
10641;SDS011;5369;49.586;8.646;2023-05-07T13:04:24;1.90;;;1.60;;
10641;SDS011;5369;49.586;8.646;2023-05-07T13:06:51;2.13;;;1.73;;
10641;SDS011;5369;49.586;8.646;2023-05-07T13:09:17;1.90;;;1.70;;
10641;SDS011;5369;49.586;8.646;2023-05-07T13:11:43;3.77;;;1.70;;
10641;SDS011;5369;49.586;8.646;2023-05-07T13:14:09;1.80;;;1.70;;
10641;SDS011;5369;49.586;8.646;2023-05-07T13:16:35;1.77;;;1.67;;
10641;SDS011;5369;49.586;8.646;2023-05-07T13:19:01;7.50;;;2.23;;
10641;SDS011;5369;49.586;8.646;2023-05-07T13:21:28;7.67;;;2.13;;
10641;SDS011;5369;49.586;8.646;2023-05-07T13:23:55;5.67;;;1.70;;
10641;SDS011;5369;49.586;8.646;2023-05-07T13:26:23;2.30;;;1.50;;
10641;SDS011;5369;49.586;8.646;2023-05-07T13:28:49;1.50;;;1.40;;
10641;SDS011;5369;49.586;8.646;2023-05-07T13:31:16;3.53;;;1.60;;
10641;SDS011;5369;49.586;8.646;2023-05-07T13:33:43;1.90;;;1.70;;
10641;SDS011;5369;49.586;8.646;2023-05-07T13:36:09;1.90;;;1.70;;
10641;SDS011;5369;49.586;8.646;2023-05-07T13:38:35;2.93;;;1.73;;
10641;SDS011;5369;49.586;8.646;2023-05-07T13:41:01;2.00;;;1.80;;
10641;SDS011;5369;49.586;8.646;2023-05-07T13:43:28;3.77;;;2.00;;
10641;SDS011;5369;49.586;8.646;2023-05-07T13:45:54;2.10;;;1.90;;
10641;SDS011;5369;49.586;8.646;2023-05-07T13:48:20;2.43;;;2.10;;
10641;SDS011;5369;49.586;8.646;2023-05-07T13:50:46;2.87;;;2.40;;
10641;SDS011;5369;49.586;8.646;2023-05-07T13:53:12;2.17;;;1.97;;
10641;SDS011;5369;49.586;8.646;2023-05-07T13:55:40;2.40;;;2.20;;
10641;SDS011;5369;49.586;8.646;2023-05-07T13:58:06;3.30;;;2.60;;
10641;SDS011;5369;49.586;8.646;2023-05-07T14:00:33;3.53;;;2.20;;
10641;SDS011;5369;49.586;8.646;2023-05-07T14:02:59;3.03;;;2.73;;
10641;SDS011;5369;49.586;8.646;2023-05-07T14:05:25;3.60;;;2.50;;
10641;SDS011;5369;49.586;8.646;2023-05-07T14:07:54;3.50;;;2.43;;
10641;SDS011;5369;49.586;8.646;2023-05-07T14:10:21;3.00;;;2.40;;
10641;SDS011;5369;49.586;8.646;2023-05-07T14:12:48;2.47;;;2.27;;
10641;SDS011;5369;49.586;8.646;2023-05-07T14:15:14;3.73;;;2.30;;
10641;SDS011;5369;49.586;8.646;2023-05-07T14:17:41;3.90;;;2.60;;
10641;SDS011;5369;49.586;8.646;2023-05-07T14:20:08;5.13;;;2.50;;
10641;SDS011;5369;49.586;8.646;2023-05-07T14:22:35;2.87;;;2.60;;
10641;SDS011;5369;49.586;8.646;2023-05-07T14:25:02;2.60;;;2.40;;
10641;SDS011;5369;49.586;8.646;2023-05-07T14:27:28;3.60;;;2.53;;
10641;SDS011;5369;49.586;8.646;2023-05-07T14:29:54;4.47;;;2.80;;
10641;SDS011;5369;49.586;8.646;2023-05-07T14:32:20;2.83;;;2.47;;
10641;SDS011;5369;49.586;8.646;2023-05-07T14:34:46;2.63;;;2.43;;
10641;SDS011;5369;49.586;8.646;2023-05-07T14:37:13;3.00;;;2.80;;
10641;SDS011;5369;49.586;8.646;2023-05-07T14:39:39;5.27;;;3.27;;
10641;SDS011;5369;49.586;8.646;2023-05-07T14:42:05;12.27;;;4.27;;
10641;SDS011;5369;49.586;8.646;2023-05-07T14:44:33;10.97;;;3.87;;
10641;SDS011;5369;49.586;8.646;2023-05-07T14:47:00;5.57;;;3.03;;
10641;SDS011;5369;49.586;8.646;2023-05-07T14:49:26;7.40;;;2.90;;
10641;SDS011;5369;49.586;8.646;2023-05-07T14:51:52;6.40;;;3.30;;
10641;SDS011;5369;49.586;8.646;2023-05-07T14:54:22;6.57;;;3.37;;
10641;SDS011;5369;49.586;8.646;2023-05-07T14:56:48;6.93;;;3.40;;
10641;SDS011;5369;49.586;8.646;2023-05-07T14:59:15;8.13;;;4.00;;
10641;SDS011;5369;49.586;8.646;2023-05-07T15:01:44;10.87;;;4.27;;
10641;SDS011;5369;49.586;8.646;2023-05-07T15:04:10;12.53;;;4.60;;
10641;SDS011;5369;49.586;8.646;2023-05-07T15:06:36;7.00;;;3.83;;
10641;SDS011;5369;49.586;8.646;2023-05-07T15:09:02;4.23;;;3.30;;
10641;SDS011;5369;49.586;8.646;2023-05-07T15:11:28;6.93;;;3.70;;